createdAt,value
2019-05-23T00:02:24.306Z,100.00
2019-05-23T00:04:55.700Z,100.00
2019-05-23T00:07:27.029Z,100.00
2019-05-23T00:09:59.533Z,100.00
2019-05-23T00:12:35.604Z,100.00
2019-05-23T00:15:12.732Z,100.00
2019-05-23T00:17:43.489Z,100.00
2019-05-23T00:20:13.296Z,100.00
2019-05-23T00:22:44.632Z,100.00
2019-05-23T00:25:16.222Z,100.00
2019-05-23T00:27:47.435Z,100.00
2019-05-23T00:30:19.086Z,100.00
2019-05-23T00:32:51.086Z,100.00
2019-05-23T00:35:20.953Z,100.00
2019-05-23T00:37:51.301Z,100.00
2019-05-23T00:40:21.594Z,100.00
2019-05-23T00:42:51.836Z,100.00
2019-05-23T00:45:23.249Z,100.00
2019-05-23T00:47:56.443Z,100.00
2019-05-23T00:50:26.487Z,100.00
2019-05-23T00:52:56.747Z,100.00
2019-05-23T00:55:28.525Z,100.00
2019-05-23T00:57:59.546Z,100.00
2019-05-23T01:00:30.189Z,100.00
2019-05-23T01:03:00.047Z,100.00
2019-05-23T01:05:31.253Z,100.00
2019-05-23T01:08:01.760Z,100.00
2019-05-23T01:10:32.245Z,100.00
2019-05-23T01:13:02.983Z,100.00
2019-05-23T01:15:34.292Z,100.00
2019-05-23T01:18:05.166Z,100.00
2019-05-23T01:20:36.539Z,100.00
2019-05-23T01:23:07.139Z,100.00
2019-05-23T01:25:36.995Z,100.00
2019-05-23T01:28:08.358Z,100.00
2019-05-23T01:30:51.966Z,100.00
2019-05-23T01:33:21.689Z,100.00
2019-05-23T01:35:51.816Z,100.00
2019-05-23T01:38:22.870Z,100.00
2019-05-23T01:40:53.082Z,100.00
2019-05-23T01:43:25.583Z,100.00
2019-05-23T01:45:55.815Z,100.00
2019-05-23T01:48:32.096Z,100.00
2019-05-23T01:51:02.418Z,100.00
2019-05-23T01:53:32.624Z,100.00
2019-05-23T01:56:02.549Z,100.00
2019-05-23T01:58:32.711Z,100.00
2019-05-23T02:01:04.644Z,100.00
2019-05-23T02:03:35.945Z,100.00
2019-05-23T02:06:06.548Z,100.00
2019-05-23T02:08:36.617Z,100.00
2019-05-23T02:11:07.264Z,100.00
2019-05-23T02:13:37.770Z,100.00
2019-05-23T02:16:07.450Z,100.00
2019-05-23T02:18:37.155Z,100.00
2019-05-23T02:21:07.752Z,100.00
2019-05-23T02:23:37.814Z,100.00
2019-05-23T02:26:09.303Z,100.00
2019-05-23T02:28:39.713Z,100.00
2019-05-23T02:31:11.989Z,100.00
2019-05-23T02:33:43.626Z,100.00
2019-05-23T02:36:13.734Z,100.00
2019-05-23T02:38:55.034Z,100.00
2019-05-23T02:41:35.492Z,100.00
2019-05-23T02:44:16.529Z,100.00
2019-05-23T02:47:01.961Z,100.00
2019-05-23T02:49:34.090Z,100.00
2019-05-23T02:52:20.429Z,100.00
2019-05-23T02:54:52.573Z,100.00
2019-05-23T02:57:25.433Z,100.00
2019-05-23T02:59:58.241Z,100.00
2019-05-23T03:02:43.809Z,100.00
2019-05-23T03:05:16.741Z,100.00
2019-05-23T03:07:46.560Z,100.00
2019-05-23T03:10:19.027Z,100.00
2019-05-23T03:12:49.591Z,100.00
2019-05-23T03:15:19.554Z,100.00
2019-05-23T03:17:52.785Z,100.00
2019-05-23T03:20:24.082Z,100.00
2019-05-23T03:23:06.194Z,100.00
2019-05-23T03:25:39.711Z,100.00
2019-05-23T03:28:12.667Z,100.00
2019-05-23T03:30:45.107Z,100.00
2019-05-23T03:33:15.807Z,100.00
2019-05-23T03:35:53.448Z,100.00
2019-05-23T03:38:23.892Z,100.00
2019-05-23T03:40:54.707Z,100.00
2019-05-23T03:43:24.456Z,100.00
2019-05-23T03:45:58.350Z,100.00
2019-05-23T03:48:29.612Z,100.00
2019-05-23T03:51:01.087Z,100.00
2019-05-23T03:53:32.105Z,100.00
2019-05-23T03:56:02.079Z,100.00
2019-05-23T03:58:33.415Z,100.00
2019-05-23T04:01:06.758Z,100.00
2019-05-23T04:03:39.994Z,100.00
2019-05-23T04:06:09.529Z,100.00
2019-05-23T04:08:39.299Z,100.00
2019-05-23T04:11:09.147Z,100.00
2019-05-23T04:13:38.898Z,100.00
2019-05-23T04:16:09.185Z,100.00
2019-05-23T04:18:39.051Z,100.00
2019-05-23T04:21:09.395Z,100.00
2019-05-23T04:23:39.930Z,100.00
2019-05-23T04:26:09.844Z,100.00
2019-05-23T04:28:39.572Z,100.00
2019-05-23T04:31:13.002Z,100.00
2019-05-23T04:33:41.494Z,100.00
2019-05-23T04:36:11.821Z,100.00
2019-05-23T04:38:41.631Z,100.00
2019-05-23T04:41:11.952Z,100.00
2019-05-23T04:43:41.690Z,100.00
2019-05-23T04:46:11.687Z,99.19
2019-05-23T04:48:41.515Z,100.00
2019-05-23T04:51:11.895Z,100.00
2019-05-23T04:53:41.870Z,100.00
2019-05-23T04:56:11.645Z,100.00
2019-05-23T04:58:41.435Z,100.00
2019-05-23T05:01:12.736Z,100.00
2019-05-23T05:03:44.886Z,100.00
2019-05-23T05:06:14.921Z,100.00
2019-05-23T05:08:44.645Z,100.00
2019-05-23T05:11:14.882Z,100.00
2019-05-23T05:13:44.748Z,100.00
2019-05-23T05:16:14.464Z,100.00
2019-05-23T05:18:44.530Z,100.00
2019-05-23T05:21:14.520Z,100.00
2019-05-23T05:23:44.223Z,100.00
2019-05-23T05:26:17.005Z,100.00
2019-05-23T05:28:47.165Z,100.00
2019-05-23T05:31:16.871Z,100.00
2019-05-23T05:33:46.802Z,100.00
2019-05-23T05:36:16.534Z,100.00
2019-05-23T05:38:46.361Z,100.00
2019-05-23T05:41:16.050Z,100.00
2019-05-23T05:43:46.325Z,100.00
2019-05-23T05:46:16.095Z,100.00
2019-05-23T05:48:46.221Z,99.34
2019-05-23T05:51:16.097Z,99.05
2019-05-23T05:53:46.769Z,98.73
2019-05-23T05:56:16.623Z,97.37
2019-05-23T05:58:46.457Z,96.95
2019-05-23T06:01:32.785Z,96.03
2019-05-23T06:03:50.009Z,94.60
2019-05-23T06:06:21.521Z,94.69
2019-05-23T06:08:53.636Z,94.72
2019-05-23T06:11:23.387Z,94.50
2019-05-23T06:13:54.425Z,93.56
2019-05-23T06:16:24.256Z,92.52
2019-05-23T06:18:54.591Z,86.36
2019-05-23T06:21:25.995Z,81.59
2019-05-23T06:23:56.064Z,77.28
2019-05-23T06:26:25.819Z,75.69
2019-05-23T06:28:55.574Z,73.93
2019-05-23T06:31:26.070Z,72.75
2019-05-23T06:33:55.740Z,72.15
2019-05-23T06:36:26.080Z,72.72
2019-05-23T06:38:57.804Z,71.60
2019-05-23T06:41:27.814Z,71.70
2019-05-23T06:43:57.731Z,71.04
2019-05-23T06:46:28.302Z,69.13
2019-05-23T06:48:58.075Z,68.63
2019-05-23T06:51:28.288Z,70.32
2019-05-23T06:53:59.067Z,69.10
2019-05-23T06:56:29.202Z,68.41
2019-05-23T06:58:59.020Z,66.59
2019-05-23T07:01:28.926Z,67.14
2019-05-23T07:03:59.146Z,67.98
2019-05-23T07:06:29.683Z,64.21
2019-05-23T07:08:59.418Z,65.82
2019-05-23T07:11:29.198Z,65.32
2019-05-23T07:13:59.109Z,66.87
2019-05-23T07:16:28.951Z,66.33
2019-05-23T07:18:58.937Z,60.89
2019-05-23T07:21:30.491Z,62.28
2019-05-23T07:24:02.170Z,68.78
2019-05-23T07:26:32.590Z,68.16
2019-05-23T07:29:04.051Z,70.22
2019-05-23T07:31:35.601Z,71.26
2019-05-23T07:34:05.838Z,71.02
2019-05-23T07:36:36.844Z,69.15
2019-05-23T07:39:11.588Z,70.90
2019-05-23T07:41:41.641Z,70.93
2019-05-23T07:44:11.886Z,68.68
2019-05-23T07:46:42.508Z,66.84
2019-05-23T07:49:12.821Z,66.33
2019-05-23T07:51:43.247Z,67.67
2019-05-23T07:54:15.026Z,68.39
2019-05-23T07:56:45.278Z,64.77
2019-05-23T07:59:15.035Z,66.03
2019-05-23T08:01:47.842Z,62.50
2019-05-23T08:04:21.911Z,63.77
2019-05-23T08:06:49.359Z,62.13
2019-05-23T08:09:19.945Z,61.36
2019-05-23T08:11:49.995Z,60.53
2019-05-23T08:14:19.991Z,59.90
2019-05-23T08:16:51.025Z,61.68
2019-05-23T08:19:20.956Z,63.41
2019-05-23T08:21:50.722Z,62.23
2019-05-23T08:24:20.585Z,63.75
2019-05-23T08:26:50.970Z,62.80
2019-05-23T08:29:26.336Z,60.55
2019-05-23T08:31:52.587Z,60.82
2019-05-23T08:34:39.953Z,63.05
2019-05-23T08:36:54.443Z,58.98
2019-05-23T08:39:25.316Z,60.58
2019-05-23T08:41:55.239Z,61.50
2019-05-23T08:44:25.532Z,59.72
2019-05-23T08:46:55.639Z,60.27
2019-05-23T08:49:25.884Z,61.13
2019-05-23T08:51:56.072Z,55.99
2019-05-23T08:54:25.862Z,58.87
2019-05-23T08:56:55.666Z,59.88
2019-05-23T08:59:25.658Z,56.99
2019-05-23T09:01:55.668Z,58.19
2019-05-23T09:04:25.415Z,58.98
2019-05-23T09:06:55.668Z,57.30
2019-05-23T09:09:30.431Z,56.55
2019-05-23T09:11:57.908Z,57.94
2019-05-23T09:14:28.218Z,58.10
2019-05-23T09:16:58.123Z,58.30
2019-05-23T09:19:28.039Z,58.21
2019-05-23T09:21:58.391Z,54.65
2019-05-23T09:24:28.137Z,57.43
2019-05-23T09:26:57.915Z,56.72
2019-05-23T09:29:27.643Z,56.81
2019-05-23T09:31:57.821Z,57.87
2019-05-23T09:34:27.896Z,57.25
2019-05-23T09:37:00.385Z,56.46
2019-05-23T09:39:31.031Z,54.57
2019-05-23T09:42:00.703Z,56.09
2019-05-23T09:44:30.450Z,54.65
2019-05-23T09:47:00.160Z,56.73
2019-05-23T09:49:30.341Z,55.55
2019-05-23T09:52:01.421Z,55.80
2019-05-23T09:54:31.534Z,55.79
2019-05-23T09:57:01.350Z,55.76
2019-05-23T09:59:31.648Z,56.66
2019-05-23T10:02:03.128Z,57.52
2019-05-23T10:04:33.038Z,58.23
2019-05-23T10:07:02.773Z,55.93
2019-05-23T10:09:32.537Z,55.07
2019-05-23T10:12:02.459Z,57.55
2019-05-23T10:14:33.772Z,55.92
2019-05-23T10:17:03.610Z,57.16
2019-05-23T10:19:33.409Z,57.49
2019-05-23T10:22:05.484Z,56.41
2019-05-23T10:24:35.217Z,57.13
2019-05-23T10:27:06.776Z,56.82
2019-05-23T10:29:36.453Z,56.96
2019-05-23T10:32:07.861Z,57.36
2019-05-23T10:34:37.554Z,56.24
2019-05-23T10:37:08.961Z,58.62
2019-05-23T10:39:38.802Z,58.63
2019-05-23T10:42:08.632Z,60.29
2019-05-23T10:44:38.324Z,58.27
2019-05-23T10:47:09.482Z,58.76
2019-05-23T10:49:39.361Z,58.74
2019-05-23T10:52:09.117Z,55.28
2019-05-23T10:54:38.942Z,55.87
2019-05-23T10:57:08.694Z,57.28
2019-05-23T10:59:38.528Z,58.08
2019-05-23T11:02:08.644Z,56.83
2019-05-23T11:04:38.413Z,55.81
2019-05-23T11:07:08.420Z,54.74
2019-05-23T11:09:38.961Z,55.20
2019-05-23T11:12:09.158Z,54.77
2019-05-23T11:14:38.979Z,56.98
2019-05-23T11:17:09.792Z,55.84
2019-05-23T11:19:39.960Z,57.38
2019-05-23T11:22:11.430Z,54.60
2019-05-23T11:24:41.221Z,54.51
2019-05-23T11:27:10.943Z,54.80
2019-05-23T11:29:40.715Z,57.27
2019-05-23T11:32:10.836Z,55.51
2019-05-23T11:34:40.598Z,55.25
2019-05-23T11:37:10.411Z,55.25
2019-05-23T11:39:49.796Z,54.90
2019-05-23T11:42:11.877Z,55.70
2019-05-23T11:44:41.786Z,57.64
2019-05-23T11:47:18.063Z,56.59
2019-05-23T11:49:47.839Z,54.44
2019-05-23T11:52:17.596Z,54.12
2019-05-23T11:54:47.539Z,53.49
2019-05-23T11:57:17.825Z,51.99
2019-05-23T11:59:47.553Z,54.31
2019-05-23T12:02:24.993Z,54.31
2019-05-23T12:04:56.413Z,53.59
2019-05-23T12:07:30.659Z,53.59
2019-05-23T12:10:00.498Z,55.04
2019-05-23T12:12:30.348Z,52.91
2019-05-23T12:15:00.264Z,54.13
2019-05-23T12:17:32.088Z,52.50
2019-05-23T12:20:02.395Z,52.50
2019-05-23T12:22:32.645Z,51.33
2019-05-23T12:25:19.850Z,54.03
2019-05-23T12:27:34.054Z,52.83
2019-05-23T12:30:07.317Z,54.78
2019-05-23T12:32:37.090Z,53.58
2019-05-23T12:35:11.166Z,54.41
2019-05-23T12:37:38.930Z,53.82
2019-05-23T12:40:10.932Z,53.76
2019-05-23T12:42:40.914Z,53.46
2019-05-23T12:45:12.018Z,53.46
2019-05-23T12:47:56.392Z,54.22
2019-05-23T12:50:44.489Z,52.96
2019-05-23T12:53:15.899Z,52.46
2019-05-23T12:55:45.708Z,51.46
2019-05-23T12:58:15.771Z,53.39
2019-05-23T13:00:47.362Z,52.87
2019-05-23T13:03:17.396Z,51.29
2019-05-23T13:05:47.445Z,53.89
2019-05-23T13:08:17.693Z,53.58
2019-05-23T13:10:47.517Z,54.16
2019-05-23T13:13:17.292Z,52.67
2019-05-23T13:15:47.471Z,53.05
2019-05-23T13:18:17.182Z,50.78
2019-05-23T13:20:47.738Z,53.44
2019-05-23T13:23:21.100Z,51.96
2019-05-23T13:25:49.527Z,52.89
2019-05-23T13:28:19.495Z,53.13
2019-05-23T13:30:49.450Z,56.64
2019-05-23T13:33:20.208Z,53.22
2019-05-23T13:35:50.475Z,51.44
2019-05-23T13:38:20.281Z,51.44
2019-05-23T13:40:49.960Z,48.18
2019-05-23T13:43:19.807Z,52.51
2019-05-23T13:45:49.648Z,51.03
2019-05-23T13:48:19.620Z,53.32
2019-05-23T13:50:49.574Z,53.07
2019-05-23T13:53:19.350Z,53.41
2019-05-23T13:55:49.247Z,52.81
2019-05-23T13:58:19.793Z,51.43
2019-05-23T14:00:50.033Z,54.29
2019-05-23T14:03:20.103Z,53.55
2019-05-23T14:05:50.029Z,53.68
2019-05-23T14:08:19.853Z,54.89
2019-05-23T14:10:49.891Z,55.09
2019-05-23T14:13:19.746Z,53.40
2019-05-23T14:15:51.577Z,54.48
2019-05-23T14:18:23.292Z,54.70
2019-05-23T14:20:53.144Z,55.85
2019-05-23T14:23:27.010Z,53.83
2019-05-23T14:25:57.984Z,51.10
2019-05-23T14:28:28.324Z,51.66
2019-05-23T14:31:06.550Z,53.75
2019-05-23T14:33:44.122Z,54.30
2019-05-23T14:36:15.550Z,55.17
2019-05-23T14:38:46.182Z,55.17
2019-05-23T14:41:16.263Z,54.77
2019-05-23T14:43:47.598Z,55.47
2019-05-23T14:46:19.028Z,55.69
2019-05-23T14:48:58.906Z,55.29
2019-05-23T14:51:48.522Z,56.05
2019-05-23T14:54:26.195Z,56.92
2019-05-23T14:56:55.981Z,57.81
2019-05-23T14:59:25.741Z,56.86
2019-05-23T15:01:56.101Z,57.50
2019-05-23T15:04:25.774Z,58.32
2019-05-23T15:06:55.625Z,57.26
2019-05-23T15:09:25.397Z,60.11
2019-05-23T15:11:55.156Z,57.53
2019-05-23T15:14:24.894Z,56.91
2019-05-23T15:16:54.633Z,58.17
2019-05-23T15:19:39.845Z,55.55
2019-05-23T15:21:55.857Z,57.47
2019-05-23T15:24:25.804Z,57.69
2019-05-23T15:26:55.579Z,56.32
2019-05-23T15:29:29.012Z,55.58
2019-05-23T15:32:02.322Z,55.80
2019-05-23T15:34:28.451Z,57.31
2019-05-23T15:36:58.128Z,56.98
2019-05-23T15:39:28.148Z,55.46
2019-05-23T15:41:57.893Z,57.13
2019-05-23T15:44:29.675Z,56.03
2019-05-23T15:46:59.160Z,57.29
2019-05-23T15:49:29.390Z,56.33
2019-05-23T15:52:03.532Z,54.29
2019-05-23T15:54:37.859Z,54.29
2019-05-23T15:57:09.409Z,54.12
2019-05-23T15:59:40.744Z,53.78
2019-05-23T16:02:15.171Z,54.89
2019-05-23T16:04:44.977Z,55.76
2019-05-23T16:07:14.862Z,53.29
2019-05-23T16:09:44.695Z,54.20
2019-05-23T16:12:14.546Z,52.68
2019-05-23T16:14:45.155Z,52.68
2019-05-23T16:17:15.063Z,53.44
2019-05-23T16:19:44.943Z,54.67
2019-05-23T16:22:14.790Z,53.98
2019-05-23T16:24:44.764Z,53.98
2019-05-23T16:27:14.419Z,56.06
2019-05-23T16:29:44.554Z,56.06
2019-05-23T16:32:14.265Z,53.12
2019-05-23T16:34:43.943Z,53.07
2019-05-23T16:37:13.715Z,53.07
2019-05-23T16:39:48.262Z,54.69
2019-05-23T16:42:15.079Z,54.68
2019-05-23T16:44:44.902Z,55.61
2019-05-23T16:47:14.764Z,54.01
2019-05-23T16:49:44.524Z,54.01
2019-05-23T16:52:14.360Z,54.96
2019-05-23T16:54:45.924Z,53.77
2019-05-23T16:57:17.472Z,54.98
2019-05-23T16:59:48.950Z,56.03
2019-05-23T17:02:36.780Z,55.72
2019-05-23T17:05:16.450Z,54.01
2019-05-23T17:07:58.561Z,55.61
2019-05-23T17:10:39.488Z,53.90
2019-05-23T17:13:12.638Z,53.90
2019-05-23T17:15:53.649Z,54.61
2019-05-23T17:18:25.126Z,54.67
2019-05-23T17:20:59.243Z,56.24
2019-05-23T17:23:47.017Z,56.24
2019-05-23T17:26:33.509Z,57.00
2019-05-23T17:29:11.470Z,55.36
2019-05-23T17:31:42.817Z,55.77
2019-05-23T17:34:12.607Z,56.03
2019-05-23T17:36:42.381Z,55.44
2019-05-23T17:39:13.000Z,57.59
2019-05-23T17:41:43.090Z,57.08
2019-05-23T17:44:12.911Z,58.33
2019-05-23T17:46:45.242Z,57.78
2019-05-23T17:49:15.392Z,58.77
2019-05-23T17:51:45.234Z,58.86
2019-05-23T17:54:15.329Z,59.42
2019-05-23T17:56:45.099Z,60.91
2019-05-23T17:59:14.906Z,60.57
2019-05-23T18:01:45.294Z,61.21
2019-05-23T18:04:15.233Z,59.94
2019-05-23T18:06:45.156Z,60.09
2019-05-23T18:09:15.556Z,60.75
2019-05-23T18:11:45.235Z,59.84
2019-05-23T18:14:15.754Z,59.46
2019-05-23T18:16:46.108Z,60.51
2019-05-23T18:19:16.510Z,60.55
2019-05-23T18:21:46.606Z,60.36
2019-05-23T18:24:16.678Z,61.22
2019-05-23T18:26:46.701Z,61.50
2019-05-23T18:29:16.840Z,60.48
2019-05-23T18:31:46.766Z,61.29
2019-05-23T18:34:16.594Z,62.10
2019-05-23T18:36:46.417Z,62.52
2019-05-23T18:39:17.101Z,62.33
2019-05-23T18:41:46.820Z,63.32
2019-05-23T18:44:17.929Z,64.11
2019-05-23T18:46:49.464Z,63.98
2019-05-23T18:49:19.942Z,65.50
2019-05-23T18:51:50.246Z,65.99
2019-05-23T18:54:19.921Z,66.23
2019-05-23T18:56:49.850Z,67.76
2019-05-23T18:59:20.467Z,69.92
2019-05-23T19:01:50.516Z,70.04
2019-05-23T19:04:20.357Z,68.50
2019-05-23T19:06:51.539Z,70.03
2019-05-23T19:09:21.919Z,72.29
2019-05-23T19:11:51.749Z,70.87
2019-05-23T19:14:21.858Z,75.67
2019-05-23T19:16:52.325Z,76.78
2019-05-23T19:19:22.433Z,78.10
2019-05-23T19:21:52.620Z,77.85
2019-05-23T19:24:22.661Z,79.14
2019-05-23T19:26:53.139Z,82.07
2019-05-23T19:29:23.325Z,82.48
2019-05-23T19:31:53.174Z,82.94
2019-05-23T19:34:23.118Z,83.33
2019-05-23T19:36:53.135Z,84.17
2019-05-23T19:39:25.068Z,84.68
2019-05-23T19:41:54.833Z,84.96
2019-05-23T19:44:24.715Z,86.40
2019-05-23T19:46:59.950Z,87.16
2019-05-23T19:49:32.450Z,87.84
2019-05-23T19:52:02.389Z,87.85
2019-05-23T19:54:32.576Z,88.34
2019-05-23T19:57:02.534Z,88.41
2019-05-23T19:59:32.401Z,88.21
2019-05-23T20:02:06.953Z,88.15
2019-05-23T20:04:38.748Z,88.27
2019-05-23T20:07:09.270Z,88.61
2019-05-23T20:09:39.072Z,88.53
2019-05-23T20:12:19.753Z,90.42
2019-05-23T20:14:50.413Z,91.62
2019-05-23T20:17:20.778Z,91.84
2019-05-23T20:19:50.852Z,91.95
2019-05-23T20:22:20.773Z,92.31
2019-05-23T20:24:50.592Z,92.43
2019-05-23T20:27:20.663Z,92.07
2019-05-23T20:29:50.486Z,92.70
2019-05-23T20:32:20.458Z,92.42
2019-05-23T20:34:50.185Z,92.56
2019-05-23T20:37:20.492Z,92.25
2019-05-23T20:39:50.433Z,92.95
2019-05-23T20:42:20.163Z,93.22
2019-05-23T20:44:50.140Z,93.74
2019-05-23T20:47:20.110Z,94.90
2019-05-23T20:49:50.440Z,95.78
2019-05-23T20:52:20.339Z,95.90
2019-05-23T20:54:50.287Z,95.07
2019-05-23T20:57:20.243Z,93.92
2019-05-23T20:59:49.975Z,94.62
2019-05-23T21:02:19.838Z,94.43
2019-05-23T21:04:49.609Z,94.49
2019-05-23T21:07:19.475Z,94.29
2019-05-23T21:09:49.264Z,94.46
2019-05-23T21:12:29.597Z,95.07
2019-05-23T21:14:52.889Z,95.42
2019-05-23T21:17:23.531Z,95.04
2019-05-23T21:19:53.298Z,94.72
2019-05-23T21:22:23.295Z,96.21
2019-05-23T21:24:53.164Z,96.50
2019-05-23T21:27:23.446Z,96.42
2019-05-23T21:29:53.221Z,95.85
2019-05-23T21:32:22.935Z,95.40
2019-05-23T21:34:52.762Z,96.22
2019-05-23T21:37:22.618Z,97.21
2019-05-23T21:39:52.499Z,96.79
2019-05-23T21:42:22.264Z,96.72
2019-05-23T21:44:52.088Z,96.78
2019-05-23T21:47:22.703Z,95.99
2019-05-23T21:49:52.400Z,96.04
2019-05-23T21:52:22.368Z,96.81
2019-05-23T21:54:52.208Z,96.39
2019-05-23T21:57:21.966Z,96.43
2019-05-23T21:59:51.677Z,96.18
2019-05-23T22:02:25.714Z,96.17
2019-05-23T22:05:03.438Z,96.89
2019-05-23T22:07:33.211Z,96.68
2019-05-23T22:10:03.280Z,97.09
2019-05-23T22:12:32.965Z,96.59
2019-05-23T22:15:03.129Z,95.97
2019-05-23T22:17:33.256Z,96.49
2019-05-23T22:20:03.045Z,96.56
2019-05-23T22:22:32.731Z,96.74
2019-05-23T22:25:02.455Z,96.86
2019-05-23T22:27:32.163Z,96.32
2019-05-23T22:30:02.330Z,96.14
2019-05-23T22:32:32.578Z,96.24
2019-05-23T22:35:04.531Z,95.54
2019-05-23T22:37:34.293Z,96.02
2019-05-23T22:40:04.974Z,96.50
2019-05-23T22:42:35.855Z,95.82
2019-05-23T22:45:08.541Z,96.41
2019-05-23T22:47:38.272Z,97.14
2019-05-23T22:50:08.249Z,97.30
2019-05-23T22:52:37.925Z,97.86
2019-05-23T22:55:07.771Z,97.65
2019-05-23T22:57:37.620Z,97.81
2019-05-23T23:00:07.470Z,97.78
2019-05-23T23:02:37.231Z,97.14
2019-05-23T23:05:07.119Z,97.49
2019-05-23T23:07:36.889Z,97.48
2019-05-23T23:10:06.755Z,97.78
2019-05-23T23:12:36.705Z,97.79
2019-05-23T23:15:08.191Z,97.37
2019-05-23T23:17:37.876Z,97.43
2019-05-23T23:20:08.185Z,97.39
2019-05-23T23:22:37.899Z,97.26
2019-05-23T23:25:07.947Z,97.42
2019-05-23T23:27:37.656Z,97.60
2019-05-23T23:30:09.552Z,97.75
2019-05-23T23:32:39.322Z,98.58
2019-05-23T23:35:09.111Z,98.79
2019-05-23T23:37:38.786Z,99.61
2019-05-23T23:40:09.314Z,100.00
2019-05-23T23:42:39.259Z,100.00
2019-05-23T23:45:27.852Z,99.98
2019-05-23T23:51:01.393Z,99.72
2019-05-23T23:53:49.245Z,99.69
2019-05-23T23:56:36.926Z,100.00
2019-05-23T23:59:14.031Z,100.00
